createdAt,value
2018-06-10T00:00:37.659Z,86.33
2018-06-10T00:01:37.660Z,86.77
2018-06-10T00:02:37.663Z,86.48
2018-06-10T00:03:37.664Z,86.19
2018-06-10T00:04:37.668Z,86.29
2018-06-10T00:05:37.673Z,86.48
2018-06-10T00:06:37.675Z,86.29
2018-06-10T00:07:37.676Z,86.39
2018-06-10T00:08:37.680Z,86.24
2018-06-10T00:09:37.679Z,86.62
2018-06-10T00:10:37.689Z,86.24
2018-06-10T00:11:37.687Z,86.33
2018-06-10T00:12:37.693Z,86.43
2018-06-10T00:13:37.693Z,86.14
2018-06-10T00:14:37.699Z,86.24
2018-06-10T00:15:37.700Z,86.19
2018-06-10T00:16:37.702Z,86.04
2018-06-10T00:17:37.708Z,85.61
2018-06-10T00:18:37.710Z,85.61
2018-06-10T00:19:37.710Z,85.71
2018-06-10T00:20:37.716Z,86.48
2018-06-10T00:21:37.721Z,85.61
2018-06-10T00:22:37.723Z,85.81
2018-06-10T00:23:37.727Z,85.71
2018-06-10T00:24:37.728Z,86.19
2018-06-10T00:25:37.731Z,85.91
2018-06-10T00:26:37.733Z,85.61
2018-06-10T00:27:37.738Z,85.52
2018-06-10T00:28:37.752Z,85.67
2018-06-10T00:29:37.742Z,85.28
2018-06-10T00:30:37.749Z,84.90
2018-06-10T00:31:37.748Z,84.99
2018-06-10T00:32:37.752Z,85.09
2018-06-10T00:33:37.753Z,85.57
2018-06-10T00:34:37.757Z,85.19
2018-06-10T00:35:37.759Z,85.57
2018-06-10T00:36:37.763Z,84.99
2018-06-10T00:37:37.770Z,85.09
2018-06-10T00:38:37.765Z,85.47
2018-06-10T00:39:37.769Z,85.09
2018-06-10T00:40:37.775Z,85.19
2018-06-10T00:41:37.774Z,85.23
2018-06-10T00:42:37.780Z,85.13
2018-06-10T00:43:37.782Z,85.23
2018-06-10T00:44:37.788Z,85.03
2018-06-10T00:45:37.789Z,85.23
2018-06-10T00:46:37.793Z,85.71
2018-06-10T00:47:37.796Z,85.23
2018-06-10T00:48:37.798Z,85.42
2018-06-10T00:49:37.800Z,85.13
2018-06-10T00:50:37.806Z,84.90
2018-06-10T00:51:37.805Z,84.70
2018-06-10T00:52:37.812Z,84.70
2018-06-10T00:53:37.814Z,84.61
2018-06-10T00:54:37.817Z,84.90
2018-06-10T00:55:37.824Z,83.94
2018-06-10T00:56:37.822Z,83.64
2018-06-10T00:57:37.826Z,83.74
2018-06-10T00:58:37.827Z,83.64
2018-06-10T00:59:37.830Z,83.80
2018-06-10T01:00:37.832Z,83.89
2018-06-10T01:01:37.835Z,83.70
2018-06-10T01:02:37.839Z,83.61
2018-06-10T01:03:37.841Z,83.12
2018-06-10T01:04:37.846Z,82.83
2018-06-10T01:05:37.843Z,83.12
2018-06-10T01:06:37.850Z,82.54
2018-06-10T01:07:37.848Z,83.70
2018-06-10T01:08:37.854Z,82.83
2018-06-10T01:09:37.858Z,82.93
2018-06-10T01:10:37.860Z,83.12
2018-06-10T01:11:37.864Z,82.83
2018-06-10T01:12:37.866Z,82.64
2018-06-10T01:13:37.867Z,83.12
2018-06-10T01:14:37.873Z,83.12
2018-06-10T01:15:37.873Z,82.83
2018-06-10T01:16:37.880Z,83.12
2018-06-10T01:17:37.880Z,83.22
2018-06-10T01:18:37.883Z,82.74
2018-06-10T01:19:37.885Z,82.83
2018-06-10T01:20:37.887Z,83.22
2018-06-10T01:21:37.899Z,83.22
2018-06-10T01:22:37.897Z,82.93
2018-06-10T01:23:37.896Z,82.74
2018-06-10T01:24:37.903Z,82.74
2018-06-10T01:25:37.902Z,82.64
2018-06-10T01:26:37.905Z,82.83
2018-06-10T01:27:37.905Z,83.12
2018-06-10T01:28:37.910Z,82.64
2018-06-10T01:29:37.914Z,82.64
2018-06-10T01:30:37.911Z,82.16
2018-06-10T01:31:37.914Z,82.26
2018-06-10T01:32:37.918Z,81.73
2018-06-10T01:33:37.922Z,81.45
2018-06-10T01:34:37.925Z,81.83
2018-06-10T01:35:37.927Z,81.63
2018-06-10T01:36:37.931Z,81.63
2018-06-10T01:37:37.937Z,81.54
2018-06-10T01:38:37.936Z,80.96
2018-06-10T01:39:37.938Z,80.96
2018-06-10T01:40:37.939Z,80.96
2018-06-10T01:41:37.944Z,81.06
2018-06-10T01:42:37.945Z,80.87
2018-06-10T01:43:37.948Z,80.38
2018-06-10T01:44:37.950Z,80.58
2018-06-10T01:45:37.961Z,81.30
2018-06-10T01:46:37.956Z,79.67
2018-06-10T01:47:37.962Z,79.77
2018-06-10T01:48:37.959Z,79.28
2018-06-10T01:49:37.963Z,79.10
2018-06-10T01:50:37.966Z,79.67
2018-06-10T01:51:37.967Z,79.38
2018-06-10T01:52:37.970Z,79.77
2018-06-10T01:53:37.972Z,79.10
2018-06-10T01:54:37.970Z,79.00
2018-06-10T01:55:37.974Z,79.28
2018-06-10T01:56:37.983Z,79.48
2018-06-10T01:57:37.981Z,79.67
2018-06-10T01:58:37.986Z,79.58
2018-06-10T01:59:37.986Z,79.77
2018-06-10T02:00:37.988Z,79.48
2018-06-10T02:01:37.992Z,79.77
2018-06-10T02:02:37.995Z,79.38
2018-06-10T02:03:37.997Z,79.28
2018-06-10T02:04:37.998Z,79.77
2018-06-10T02:05:38.000Z,78.81
2018-06-10T02:06:38.003Z,78.71
2018-06-10T02:07:38.004Z,79.38
2018-06-10T02:08:38.009Z,79.58
2018-06-10T02:09:38.019Z,79.19
2018-06-10T02:10:38.011Z,79.48
2018-06-10T02:11:38.013Z,79.77
2018-06-10T02:12:38.018Z,79.19
2018-06-10T02:13:38.018Z,79.38
2018-06-10T02:14:38.021Z,79.38
2018-06-10T02:15:38.023Z,79.67
2018-06-10T02:16:38.027Z,79.48
2018-06-10T02:17:38.025Z,79.67
2018-06-10T02:18:38.029Z,79.58
2018-06-10T02:19:38.033Z,78.71
2018-06-10T02:20:38.035Z,79.10
2018-06-10T02:21:38.036Z,79.28
2018-06-10T02:22:38.042Z,79.10
2018-06-10T02:23:38.040Z,78.90
2018-06-10T02:24:38.044Z,79.00
2018-06-10T02:25:38.044Z,78.90
2018-06-10T02:26:38.047Z,79.86
2018-06-10T02:27:38.047Z,79.86
2018-06-10T02:28:38.050Z,78.81
2018-06-10T02:29:38.058Z,78.71
2018-06-10T02:30:38.054Z,79.10
2018-06-10T02:31:38.065Z,77.94
2018-06-10T02:32:38.074Z,78.61
2018-06-10T02:33:38.067Z,78.23
2018-06-10T02:34:38.068Z,77.46
2018-06-10T02:35:38.076Z,77.84
2018-06-10T02:36:38.092Z,77.84
2018-06-10T02:37:38.074Z,77.65
2018-06-10T02:38:38.102Z,77.56
2018-06-10T02:39:38.071Z,78.13
2018-06-10T02:40:38.073Z,77.75
2018-06-10T02:41:38.084Z,77.94
2018-06-10T02:42:38.083Z,77.36
2018-06-10T02:43:38.094Z,76.69
2018-06-10T02:44:38.085Z,76.98
2018-06-10T02:45:38.092Z,77.84
2018-06-10T02:46:38.092Z,77.36
2018-06-10T02:47:38.092Z,76.50
2018-06-10T02:48:38.096Z,76.31
2018-06-10T02:49:38.095Z,76.59
2018-06-10T02:50:38.099Z,76.50
2018-06-10T02:51:38.100Z,77.08
2018-06-10T02:52:38.105Z,76.78
2018-06-10T02:53:38.115Z,77.17
2018-06-10T02:54:38.124Z,76.98
2018-06-10T02:55:38.113Z,77.75
2018-06-10T02:56:38.115Z,76.98
2018-06-10T02:57:38.112Z,76.50
2018-06-10T02:58:38.116Z,76.98
2018-06-10T02:59:38.117Z,77.08
2018-06-10T03:00:38.123Z,76.50
2018-06-10T03:01:38.122Z,76.88
2018-06-10T03:02:38.130Z,76.21
2018-06-10T03:03:38.127Z,76.69
2018-06-10T03:04:38.129Z,76.59
2018-06-10T03:05:38.128Z,76.59
2018-06-10T03:06:38.133Z,76.59
2018-06-10T03:07:38.136Z,76.59
2018-06-10T03:08:38.137Z,76.21
2018-06-10T03:09:38.139Z,76.40
2018-06-10T03:10:38.142Z,76.59
2018-06-10T03:11:38.143Z,76.59
2018-06-10T03:12:38.148Z,76.11
2018-06-10T03:13:38.153Z,76.59
2018-06-10T03:14:38.150Z,76.21
2018-06-10T03:15:38.154Z,75.92
2018-06-10T03:16:38.161Z,76.31
2018-06-10T03:17:38.157Z,76.31
2018-06-10T03:18:38.158Z,76.40
2018-06-10T03:19:38.165Z,75.92
2018-06-10T03:20:38.167Z,75.54
2018-06-10T03:21:38.165Z,75.63
2018-06-10T03:22:38.167Z,75.82
2018-06-10T03:23:38.166Z,75.92
2018-06-10T03:24:38.167Z,75.63
2018-06-10T03:25:38.172Z,75.92
2018-06-10T03:26:38.254Z,76.31
2018-06-10T03:27:38.178Z,75.92
2018-06-10T03:28:38.181Z,75.63
2018-06-10T03:29:38.183Z,75.82
2018-06-10T03:30:38.185Z,75.92
2018-06-10T03:31:38.189Z,76.31
2018-06-10T03:32:38.188Z,76.31
2018-06-10T03:33:38.190Z,76.44
2018-06-10T03:34:38.206Z,76.69
2018-06-10T03:35:38.195Z,76.44
2018-06-10T03:36:38.196Z,76.73
2018-06-10T03:37:38.199Z,76.59
2018-06-10T03:38:38.206Z,76.21
2018-06-10T03:39:38.203Z,76.59
2018-06-10T03:40:38.205Z,76.25
2018-06-10T03:41:38.207Z,76.69
2018-06-10T03:42:38.208Z,76.44
2018-06-10T03:43:38.213Z,76.73
2018-06-10T03:44:38.218Z,76.25
2018-06-10T03:45:38.215Z,77.01
2018-06-10T03:46:38.222Z,77.25
2018-06-10T03:47:38.217Z,77.44
2018-06-10T03:48:38.219Z,78.69
2018-06-10T03:49:38.223Z,78.31
2018-06-10T03:50:38.226Z,78.50
2018-06-10T03:51:38.228Z,79.02
2018-06-10T03:52:38.234Z,79.11
2018-06-10T03:53:38.233Z,79.50
2018-06-10T03:54:38.236Z,79.98
2018-06-10T03:55:38.236Z,79.79
2018-06-10T03:56:38.239Z,79.98
2018-06-10T03:57:38.245Z,79.89
2018-06-10T03:58:38.244Z,79.31
2018-06-10T03:59:38.246Z,79.79
2018-06-10T04:00:38.251Z,79.98
2018-06-10T04:01:38.257Z,80.37
2018-06-10T04:02:38.253Z,80.89
2018-06-10T04:03:38.258Z,80.18
2018-06-10T04:04:38.259Z,80.41
2018-06-10T04:05:38.260Z,80.79
2018-06-10T04:06:38.265Z,80.99
2018-06-10T04:07:38.261Z,79.60
2018-06-10T04:08:38.270Z,80.37
2018-06-10T04:09:38.272Z,80.37
2018-06-10T04:10:38.270Z,80.37
2018-06-10T04:11:38.274Z,81.80
2018-06-10T04:12:38.278Z,83.96
2018-06-10T04:13:38.280Z,85.40
2018-06-10T04:14:38.283Z,85.93
2018-06-10T04:15:38.287Z,85.83
2018-06-10T04:16:38.288Z,86.35
2018-06-10T04:17:38.294Z,87.32
2018-06-10T04:18:38.295Z,87.70
2018-06-10T04:19:38.297Z,88.46
2018-06-10T04:20:38.309Z,88.41
2018-06-10T04:21:38.305Z,87.68
2018-06-10T04:22:38.326Z,88.27
2018-06-10T04:23:38.308Z,88.42
2018-06-10T04:24:38.315Z,88.27
2018-06-10T04:25:38.317Z,88.21
2018-06-10T04:26:38.324Z,87.78
2018-06-10T04:27:38.321Z,88.23
2018-06-10T04:28:38.326Z,88.23
2018-06-10T04:29:38.327Z,88.46
2018-06-10T04:30:38.333Z,88.79
2018-06-10T04:31:38.336Z,88.24
2018-06-10T04:32:38.340Z,87.26
2018-06-10T04:33:38.341Z,86.04
2018-06-10T04:34:38.344Z,85.02
2018-06-10T04:35:38.347Z,84.08
2018-06-10T04:36:38.348Z,82.96
2018-06-10T04:37:38.350Z,83.00
2018-06-10T04:38:38.356Z,82.67
2018-06-10T04:39:38.360Z,83.50
2018-06-10T04:40:38.366Z,85.46
2018-06-10T04:41:38.373Z,86.64
2018-06-10T04:42:38.373Z,87.27
2018-06-10T04:43:38.378Z,87.72
2018-06-10T04:44:38.384Z,87.82
2018-06-10T04:45:38.385Z,88.30
2018-06-10T04:46:38.391Z,88.35
2018-06-10T04:47:38.394Z,88.30
2018-06-10T04:48:38.398Z,87.77
2018-06-10T04:49:38.403Z,88.35
2018-06-10T04:50:38.407Z,87.87
2018-06-10T04:51:38.411Z,87.96
2018-06-10T04:52:38.415Z,87.87
2018-06-10T04:53:38.418Z,88.45
2018-06-10T04:54:38.425Z,88.16
2018-06-10T04:55:38.431Z,88.45
2018-06-10T04:56:38.436Z,88.06
2018-06-10T04:57:38.438Z,88.26
2018-06-10T04:58:38.440Z,88.15
2018-06-10T04:59:38.445Z,88.29
2018-06-10T05:00:38.451Z,87.12
2018-06-10T05:01:38.458Z,87.71
2018-06-10T05:02:38.465Z,87.07
2018-06-10T05:03:38.463Z,86.82
2018-06-10T05:04:38.466Z,85.50
2018-06-10T05:05:38.472Z,84.42
2018-06-10T05:06:38.473Z,83.98
2018-06-10T05:07:38.476Z,84.68
2018-06-10T05:08:38.481Z,84.83
2018-06-10T05:09:38.487Z,84.53
2018-06-10T05:10:38.494Z,83.11
2018-06-10T05:11:38.494Z,81.96
2018-06-10T05:12:38.498Z,79.63
2018-06-10T05:13:38.503Z,80.21
2018-06-10T05:14:38.507Z,79.64
2018-06-10T05:15:38.511Z,80.82
2018-06-10T05:16:38.519Z,81.54
2018-06-10T05:17:38.517Z,80.44
2018-06-10T05:18:38.521Z,80.17
2018-06-10T05:19:38.551Z,81.01
2018-06-10T05:20:38.533Z,80.02
2018-06-10T05:21:38.539Z,78.79
2018-06-10T05:22:38.544Z,79.45
2018-06-10T05:23:38.557Z,81.16
2018-06-10T05:24:38.556Z,82.14
2018-06-10T05:25:38.559Z,81.44
2018-06-10T05:26:38.565Z,79.66
2018-06-10T05:27:38.570Z,79.24
2018-06-10T05:28:38.575Z,79.17
2018-06-10T05:29:38.584Z,77.81
2018-06-10T05:30:38.588Z,77.66
2018-06-10T05:31:38.591Z,75.45
2018-06-10T05:32:38.595Z,75.52
2018-06-10T05:33:38.602Z,72.59
2018-06-10T05:34:38.607Z,72.49
2018-06-10T05:35:38.612Z,73.73
2018-06-10T05:36:38.618Z,74.35
2018-06-10T05:37:38.624Z,73.95
2018-06-10T05:38:38.633Z,74.96
2018-06-10T05:39:38.635Z,73.50
2018-06-10T05:40:38.642Z,72.43
2018-06-10T05:41:38.648Z,72.30
2018-06-10T05:42:38.658Z,72.08
2018-06-10T05:43:38.660Z,70.90
2018-06-10T05:44:38.666Z,72.39
2018-06-10T05:45:38.672Z,75.34
2018-06-10T05:46:38.679Z,75.27
2018-06-10T05:47:38.684Z,75.67
2018-06-10T05:48:38.687Z,74.77
2018-06-10T05:49:38.697Z,72.53
2018-06-10T05:50:38.706Z,71.75
2018-06-10T05:51:38.710Z,70.09
2018-06-10T05:52:38.716Z,72.13
2018-06-10T05:53:38.722Z,75.89
2018-06-10T05:54:38.730Z,77.54
2018-06-10T05:55:38.739Z,76.29
2018-06-10T05:56:38.740Z,75.60
2018-06-10T05:57:38.747Z,76.61
2018-06-10T05:58:38.757Z,77.89
2018-06-10T05:59:38.760Z,79.74
2018-06-10T06:00:38.767Z,78.96
2018-06-10T06:01:38.774Z,78.77
2018-06-10T06:02:38.780Z,77.97
2018-06-10T06:03:38.788Z,74.51
2018-06-10T06:04:38.793Z,70.18
2018-06-10T06:05:38.799Z,70.12
2018-06-10T06:06:38.806Z,71.86
2018-06-10T06:07:38.812Z,73.95
2018-06-10T06:08:38.819Z,72.36
2018-06-10T06:09:38.827Z,70.57
2018-06-10T06:10:38.833Z,69.70
2018-06-10T06:11:38.839Z,69.21
2018-06-10T06:12:38.848Z,69.92
2018-06-10T06:13:38.853Z,69.27
2018-06-10T06:14:38.862Z,66.11
2018-06-10T06:15:38.867Z,65.72
2018-06-10T06:16:38.874Z,66.01
2018-06-10T06:17:38.881Z,65.95
2018-06-10T06:18:38.887Z,65.39
2018-06-10T06:19:38.896Z,65.78
2018-06-10T06:20:38.921Z,64.21
2018-06-10T06:21:38.911Z,62.05
2018-06-10T06:22:38.916Z,61.13
2018-06-10T06:23:38.921Z,59.62
2018-06-10T06:24:38.929Z,58.33
2018-06-10T06:25:38.938Z,57.05
2018-06-10T06:26:38.944Z,56.85
2018-06-10T06:27:38.952Z,55.11
2018-06-10T06:28:38.955Z,53.86
2018-06-10T06:29:38.969Z,52.61
2018-06-10T06:30:38.976Z,51.97
2018-06-10T06:31:38.987Z,52.97
2018-06-10T06:32:38.991Z,51.92
2018-06-10T06:33:39.001Z,51.32
2018-06-10T06:34:39.009Z,51.50
2018-06-10T06:35:39.017Z,50.83
2018-06-10T06:36:39.026Z,50.93
2018-06-10T06:37:39.035Z,52.26
2018-06-10T06:38:39.049Z,52.62
2018-06-10T06:39:39.053Z,52.77
2018-06-10T06:40:39.059Z,53.88
2018-06-10T06:41:39.068Z,53.83
2018-06-10T06:42:39.079Z,58.62
2018-06-10T06:43:39.083Z,59.11
2018-06-10T06:44:39.096Z,58.39
2018-06-10T06:45:39.100Z,58.23
2018-06-10T06:46:39.111Z,56.74
2018-06-10T06:47:39.119Z,55.45
2018-06-10T06:48:39.127Z,54.08
2018-06-10T06:49:39.135Z,55.16
2018-06-10T06:50:39.153Z,54.93
2018-06-10T06:51:39.158Z,55.62
2018-06-10T06:52:39.269Z,54.78
2018-06-10T06:53:39.179Z,55.18
2018-06-10T06:54:39.187Z,56.87
2018-06-10T06:55:39.308Z,53.68
2018-06-10T06:56:39.207Z,53.34
2018-06-10T06:57:39.213Z,52.61
2018-06-10T06:58:39.225Z,52.53
2018-06-10T06:59:39.252Z,50.41
2018-06-10T07:00:39.247Z,49.48
2018-06-10T07:01:39.255Z,49.48
2018-06-10T07:02:39.275Z,49.35
2018-06-10T07:03:39.277Z,48.96
2018-06-10T07:04:39.284Z,47.99
2018-06-10T07:05:39.299Z,47.79
2018-06-10T07:06:39.307Z,48.36
2018-06-10T07:07:39.321Z,46.73
2018-06-10T07:08:39.327Z,46.91
2018-06-10T07:09:39.338Z,48.98
2018-06-10T07:10:39.348Z,47.92
2018-06-10T07:11:39.359Z,47.47
2018-06-10T07:12:39.372Z,47.80
2018-06-10T07:13:39.383Z,48.39
2018-06-10T07:14:39.396Z,50.54
2018-06-10T07:15:39.402Z,52.67
2018-06-10T07:16:39.416Z,51.74
2018-06-10T07:17:39.424Z,50.49
2018-06-10T07:18:39.433Z,50.24
2018-06-10T07:19:39.450Z,50.04
2018-06-10T07:20:39.459Z,50.51
2018-06-10T07:21:39.471Z,48.69
2018-06-10T07:22:39.482Z,47.55
2018-06-10T07:23:42.146Z,46.99
2018-06-10T07:24:39.506Z,48.86
2018-06-10T07:25:39.518Z,47.75
2018-06-10T07:26:39.528Z,48.91
2018-06-10T07:27:39.542Z,50.63
2018-06-10T07:28:39.551Z,50.66
2018-06-10T07:29:39.563Z,49.23
2018-06-10T07:30:39.580Z,48.29
2018-06-10T07:31:39.585Z,47.41
2018-06-10T07:32:39.599Z,46.37
2018-06-10T07:33:39.610Z,45.60
2018-06-10T07:34:39.635Z,46.26
2018-06-10T07:35:39.632Z,45.92
2018-06-10T07:36:39.642Z,45.74
2018-06-10T07:37:39.658Z,44.20
2018-06-10T07:38:39.664Z,43.91
2018-06-10T07:39:39.677Z,44.34
2018-06-10T07:40:39.768Z,45.15
2018-06-10T07:41:39.705Z,44.58
2018-06-10T07:42:39.717Z,45.24
2018-06-10T07:43:39.728Z,47.91
2018-06-10T07:44:39.747Z,51.59
2018-06-10T07:45:39.755Z,53.40
2018-06-10T07:46:39.771Z,53.58
2018-06-10T07:47:39.778Z,52.28
2018-06-10T07:48:39.862Z,50.98
2018-06-10T07:49:39.803Z,51.57
2018-06-10T07:50:39.820Z,51.64
2018-06-10T07:51:39.823Z,51.40
2018-06-10T07:52:39.837Z,49.95
2018-06-10T07:53:39.853Z,49.70
2018-06-10T07:54:39.868Z,49.23
2018-06-10T07:55:39.882Z,48.64
2018-06-10T07:56:39.884Z,47.56
2018-06-10T07:57:39.899Z,47.43
2018-06-10T07:58:39.913Z,46.37
2018-06-10T07:59:39.926Z,45.89
2018-06-10T08:00:39.936Z,46.42
2018-06-10T08:01:39.945Z,47.48
2018-06-10T08:02:39.962Z,49.48
2018-06-10T08:03:39.980Z,49.97
2018-06-10T08:04:39.989Z,50.34
2018-06-10T08:05:40.000Z,50.54
2018-06-10T08:06:40.012Z,50.61
2018-06-10T08:07:40.023Z,50.85
2018-06-10T08:08:40.041Z,49.35
2018-06-10T08:09:40.046Z,47.48
2018-06-10T08:10:40.059Z,46.26
2018-06-10T08:11:40.075Z,45.62
2018-06-10T08:12:40.088Z,44.85
2018-06-10T08:13:40.097Z,43.37
2018-06-10T08:14:40.108Z,43.71
2018-06-10T08:15:40.124Z,43.49
2018-06-10T08:16:40.131Z,44.97
2018-06-10T08:17:40.148Z,44.96
2018-06-10T08:18:40.203Z,47.36
2018-06-10T08:19:40.171Z,50.85
2018-06-10T08:20:40.189Z,51.40
2018-06-10T08:21:40.211Z,50.76
2018-06-10T08:22:40.218Z,50.29
2018-06-10T08:23:40.228Z,50.59
2018-06-10T08:24:40.243Z,50.29
2018-06-10T08:25:40.253Z,51.40
2018-06-10T08:26:40.262Z,52.45
2018-06-10T08:27:40.275Z,52.52
2018-06-10T08:28:40.288Z,53.36
2018-06-10T08:29:40.301Z,53.65
2018-06-10T08:30:40.312Z,53.28
2018-06-10T08:31:40.322Z,53.53
2018-06-10T08:32:40.334Z,53.27
2018-06-10T08:33:40.348Z,52.06
2018-06-10T08:34:40.365Z,51.81
2018-06-10T08:35:40.376Z,51.72
2018-06-10T08:36:40.390Z,50.68
2018-06-10T08:37:40.403Z,51.69
2018-06-10T08:38:40.412Z,52.87
2018-06-10T08:39:40.428Z,51.05
2018-06-10T08:40:40.444Z,51.57
2018-06-10T08:41:40.452Z,50.63
2018-06-10T08:42:40.465Z,49.52
2018-06-10T08:43:40.470Z,48.74
2018-06-10T08:44:40.490Z,47.16
2018-06-10T08:45:40.499Z,46.48
2018-06-10T08:46:40.516Z,46.59
2018-06-10T08:47:40.527Z,45.76
2018-06-10T08:48:40.539Z,44.65
2018-06-10T08:49:40.554Z,44.10
2018-06-10T08:50:40.565Z,44.01
2018-06-10T08:51:40.584Z,43.91
2018-06-10T08:52:40.596Z,44.58
2018-06-10T08:53:41.560Z,44.09
2018-06-10T08:54:40.627Z,45.35
2018-06-10T08:55:40.635Z,45.35
2018-06-10T08:56:40.660Z,45.32
2018-06-10T08:57:40.666Z,46.15
2018-06-10T08:58:40.690Z,45.38
2018-06-10T08:59:40.696Z,46.37
2018-06-10T09:00:40.706Z,46.57
2018-06-10T09:01:40.723Z,47.51
2018-06-10T09:02:40.775Z,47.88
2018-06-10T09:03:40.746Z,49.51
2018-06-10T09:04:40.758Z,50.66
2018-06-10T09:05:40.770Z,51.54
2018-06-10T09:06:40.787Z,53.06
2018-06-10T09:07:40.797Z,54.50
2018-06-10T09:08:40.852Z,52.57
2018-06-10T09:09:40.822Z,52.57
2018-06-10T09:10:40.831Z,52.96
2018-06-10T09:11:40.845Z,53.01
2018-06-10T09:12:40.871Z,53.30
2018-06-10T09:13:40.874Z,53.18
2018-06-10T09:14:40.882Z,53.28
2018-06-10T09:15:40.892Z,55.21
2018-06-10T09:16:40.903Z,56.46
2018-06-10T09:17:40.917Z,55.82
2018-06-10T09:18:40.927Z,56.44
2018-06-10T09:19:40.937Z,54.11
2018-06-10T09:20:40.948Z,53.55
2018-06-10T09:21:40.959Z,53.28
2018-06-10T09:22:40.969Z,51.79
2018-06-10T09:23:40.980Z,52.20
2018-06-10T09:24:40.994Z,51.69
2018-06-10T09:25:41.001Z,52.64
2018-06-10T09:26:41.008Z,51.64
2018-06-10T09:27:41.018Z,52.25
2018-06-10T09:28:41.035Z,53.23
2018-06-10T09:29:41.045Z,52.76
2018-06-10T09:30:41.056Z,52.74
2018-06-10T09:31:41.064Z,52.96
2018-06-10T09:32:41.074Z,52.67
2018-06-10T09:33:41.086Z,51.46
2018-06-10T09:34:41.098Z,52.37
2018-06-10T09:35:41.106Z,52.18
2018-06-10T09:36:41.146Z,52.35
2018-06-10T09:37:41.126Z,53.63
2018-06-10T09:38:41.141Z,53.59
2018-06-10T09:39:41.148Z,55.46
2018-06-10T09:40:41.157Z,55.07
2018-06-10T09:41:41.167Z,55.73
2018-06-10T09:42:41.177Z,55.38
2018-06-10T09:43:41.184Z,57.07
2018-06-10T09:44:41.202Z,55.43
2018-06-10T09:45:41.208Z,55.11
2018-06-10T09:46:41.217Z,55.18
2018-06-10T09:47:41.222Z,55.60
2018-06-10T09:48:41.234Z,55.73
2018-06-10T09:49:41.243Z,56.61
2018-06-10T09:50:41.259Z,57.59
2018-06-10T09:51:41.262Z,56.93
2018-06-10T09:52:41.272Z,57.29
2018-06-10T09:53:41.281Z,57.10
2018-06-10T09:54:41.290Z,56.61
2018-06-10T09:55:41.390Z,54.75
2018-06-10T09:56:41.307Z,54.55
2018-06-10T09:57:41.317Z,54.62
2018-06-10T09:58:41.323Z,55.87
2018-06-10T09:59:41.333Z,56.58
2018-06-10T10:00:41.343Z,57.07
2018-06-10T10:01:41.350Z,56.06
2018-06-10T10:02:41.428Z,57.34
2018-06-10T10:03:41.372Z,57.04
2018-06-10T10:04:41.384Z,57.87
2018-06-10T10:05:41.389Z,57.25
2018-06-10T10:06:41.403Z,57.48
2018-06-10T10:07:41.401Z,57.99
2018-06-10T10:08:41.418Z,58.28
2018-06-10T10:09:41.425Z,56.65
2018-06-10T10:10:41.434Z,57.14
2018-06-10T10:11:41.442Z,57.53
2018-06-10T10:12:41.451Z,57.36
2018-06-10T10:13:41.460Z,57.66
2018-06-10T10:14:41.498Z,56.51
2018-06-10T10:15:41.480Z,56.51
2018-06-10T10:16:41.488Z,55.33
2018-06-10T10:17:41.496Z,56.29
2018-06-10T10:18:41.515Z,57.04
2018-06-10T10:19:41.512Z,57.14
2018-06-10T10:20:41.527Z,57.26
2018-06-10T10:21:41.532Z,58.11
2018-06-10T10:22:41.539Z,56.15
2018-06-10T10:23:41.547Z,56.15
2018-06-10T10:24:41.557Z,55.24
2018-06-10T10:25:41.566Z,54.25
2018-06-10T10:26:41.574Z,55.31
2018-06-10T10:27:41.587Z,56.48
2018-06-10T10:28:41.595Z,55.60
2018-06-10T10:29:41.601Z,56.81
2018-06-10T10:30:41.607Z,56.44
2018-06-10T10:31:41.619Z,55.85
2018-06-10T10:32:41.627Z,56.34
2018-06-10T10:33:41.634Z,55.36
2018-06-10T10:34:41.643Z,55.43
2018-06-10T10:35:41.666Z,56.58
2018-06-10T10:36:41.661Z,56.19
2018-06-10T10:37:41.670Z,56.87
2018-06-10T10:38:41.682Z,56.46
2018-06-10T10:39:41.688Z,57.40
2018-06-10T10:40:41.699Z,58.09
2018-06-10T10:41:41.705Z,58.16
2018-06-10T10:42:41.715Z,58.03
2018-06-10T10:43:41.721Z,59.01
2018-06-10T10:44:41.730Z,58.84
2018-06-10T10:45:41.743Z,58.26
2018-06-10T10:46:41.747Z,58.55
2018-06-10T10:47:41.754Z,58.87
2018-06-10T10:48:41.765Z,58.68
2018-06-10T10:49:41.770Z,58.38
2018-06-10T10:50:41.780Z,60.08
2018-06-10T10:51:41.786Z,58.38
2018-06-10T10:52:41.794Z,59.46
2018-06-10T10:53:41.802Z,58.80
2018-06-10T10:54:41.812Z,58.70
2018-06-10T10:55:41.822Z,59.00
2018-06-10T10:56:41.825Z,59.61
2018-06-10T10:57:41.840Z,61.77
2018-06-10T10:58:41.851Z,59.71
2018-06-10T10:59:41.864Z,57.36
2018-06-10T11:00:41.865Z,58.25
2018-06-10T11:01:41.874Z,57.46
2018-06-10T11:02:41.882Z,57.17
2018-06-10T11:03:41.889Z,57.49
2018-06-10T11:04:41.897Z,58.17
2018-06-10T11:05:41.906Z,57.76
2018-06-10T11:06:41.915Z,57.68
2018-06-10T11:07:41.923Z,57.78
2018-06-10T11:08:41.932Z,58.20
2018-06-10T11:09:41.940Z,56.93
2018-06-10T11:10:41.949Z,57.12
2018-06-10T11:11:41.955Z,55.26
2018-06-10T11:12:41.968Z,55.76
2018-06-10T11:13:41.973Z,56.24
2018-06-10T11:14:41.981Z,56.05
2018-06-10T11:15:41.987Z,55.95
2018-06-10T11:16:42.007Z,57.22
2018-06-10T11:17:42.012Z,57.12
2018-06-10T11:18:42.019Z,58.20
2018-06-10T11:19:42.026Z,55.82
2018-06-10T11:20:42.032Z,57.07
2018-06-10T11:21:42.041Z,57.17
2018-06-10T11:22:42.049Z,57.95
2018-06-10T11:23:42.057Z,58.34
2018-06-10T11:24:42.066Z,58.25
2018-06-10T11:25:42.073Z,58.31
2018-06-10T11:26:42.082Z,58.12
2018-06-10T11:27:42.090Z,58.61
2018-06-10T11:28:42.098Z,58.02
2018-06-10T11:29:42.107Z,56.85
2018-06-10T11:30:42.115Z,56.56
2018-06-10T11:31:42.138Z,57.63
2018-06-10T11:32:42.130Z,57.04
2018-06-10T11:33:42.141Z,55.67
2018-06-10T11:34:42.151Z,56.46
2018-06-10T11:35:42.158Z,55.28
2018-06-10T11:36:42.173Z,55.57
2018-06-10T11:37:42.179Z,55.96
2018-06-10T11:38:42.180Z,55.70
2018-06-10T11:39:42.190Z,55.87
2018-06-10T11:40:42.193Z,56.46
2018-06-10T11:41:42.202Z,57.73
2018-06-10T11:42:42.210Z,57.73
2018-06-10T11:43:42.222Z,55.47
2018-06-10T11:44:42.231Z,55.28
2018-06-10T11:45:42.240Z,55.18
2018-06-10T11:46:42.247Z,55.16
2018-06-10T11:47:42.258Z,54.99
2018-06-10T11:48:42.263Z,56.16
2018-06-10T11:49:42.272Z,57.14
2018-06-10T11:50:42.280Z,58.44
2018-06-10T11:51:42.287Z,58.44
2018-06-10T11:52:42.296Z,58.02
2018-06-10T11:53:42.304Z,58.22
2018-06-10T11:54:42.313Z,58.31
2018-06-10T11:55:42.321Z,58.80
2018-06-10T11:56:42.328Z,59.36
2018-06-10T11:57:42.343Z,59.66
2018-06-10T11:58:42.342Z,59.46
2018-06-10T11:59:42.349Z,59.07
2018-06-10T12:00:42.365Z,59.43
2018-06-10T12:01:42.371Z,58.65
2018-06-10T12:02:42.379Z,59.69
2018-06-10T12:03:42.386Z,60.47
2018-06-10T12:04:42.393Z,60.38
2018-06-10T12:05:42.405Z,60.38
2018-06-10T12:06:42.414Z,60.47
2018-06-10T12:07:42.419Z,61.82
2018-06-10T12:08:42.427Z,62.21
2018-06-10T12:09:42.436Z,63.87
2018-06-10T12:10:42.464Z,63.67
2018-06-10T12:11:42.449Z,65.53
2018-06-10T12:12:42.468Z,66.96
2018-06-10T12:13:42.476Z,66.37
2018-06-10T12:14:42.476Z,67.93
2018-06-10T12:15:42.487Z,68.77
2018-06-10T12:16:42.559Z,69.07
2018-06-10T12:17:42.498Z,70.24
2018-06-10T12:18:42.508Z,68.16
2018-06-10T12:19:42.511Z,66.69
2018-06-10T12:20:42.521Z,64.81
2018-06-10T12:21:42.528Z,64.81
2018-06-10T12:22:42.603Z,65.01
2018-06-10T12:23:42.543Z,66.63
2018-06-10T12:24:42.549Z,66.83
2018-06-10T12:25:42.559Z,68.06
2018-06-10T12:26:42.565Z,69.68
2018-06-10T12:27:42.571Z,71.33
2018-06-10T12:28:42.581Z,71.92
2018-06-10T12:29:42.587Z,72.56
2018-06-10T12:30:42.594Z,74.41
2018-06-10T12:31:42.600Z,74.71
2018-06-10T12:32:42.609Z,77.72
2018-06-10T12:33:42.615Z,78.40
2018-06-10T12:34:42.631Z,79.92
2018-06-10T12:35:42.627Z,81.86
2018-06-10T12:36:42.639Z,81.24
2018-06-10T12:37:42.648Z,81.34
2018-06-10T12:38:42.652Z,83.18
2018-06-10T12:39:42.661Z,82.85
2018-06-10T12:40:42.665Z,83.34
2018-06-10T12:41:42.672Z,83.82
2018-06-10T12:42:42.676Z,84.50
2018-06-10T12:43:42.683Z,85.92
2018-06-10T12:44:42.688Z,84.75
2018-06-10T12:45:42.696Z,83.97
2018-06-10T12:46:42.706Z,84.17
2018-06-10T12:47:42.712Z,83.49
2018-06-10T12:48:42.719Z,85.43
2018-06-10T12:49:42.721Z,84.17
2018-06-10T12:50:42.731Z,83.97
2018-06-10T12:51:42.734Z,83.84
2018-06-10T12:52:42.740Z,85.49